Time;durP1;ratioP1;P1;durP2;ratioP2;P2;SDS_P1;SDS_P2;PMS_P1;PMS_P2;Temp;Humidity;BMP_temperature;BMP_pressure;BME280_temperature;BME280_humidity;BME280_pressure;Samples;Min_cycle;Max_cycle;Signal;HPM_P1;HPM_P2
2024/04/02 00:00:50;;;;;;;0.10;0.10;;;9.70;80.90;;;;;;5028858;28;20016;-81
2024/04/02 00:03:16;;;;;;;0.10;0.10;;;9.70;80.80;;;;;;5054993;28;20030;-82
2024/04/02 00:05:42;;;;;;;0.10;0.10;;;9.70;81.00;;;;;;5054572;28;20105;-84
2024/04/02 00:08:08;;;;;;;0.10;0.10;;;9.70;80.80;;;;;;5037992;28;20478;-83
2024/04/02 00:10:38;;;;;;;0.10;0.10;;;9.70;81.00;;;;;;5057534;28;20033;-84
2024/04/02 00:13:04;;;;;;;0.10;0.10;;;9.70;80.90;;;;;;5058709;28;20479;-81
2024/04/02 00:15:30;;;;;;;0.10;0.10;;;9.70;80.80;;;;;;5046456;28;20040;-83
2024/04/02 00:17:58;;;;;;;0.10;0.10;;;9.70;80.70;;;;;;5037580;28;20017;-81
2024/04/02 00:20:24;;;;;;;0.10;0.10;;;9.70;80.80;;;;;;5035133;28;20092;-84
2024/04/02 00:22:50;;;;;;;0.05;0.05;;;9.70;80.70;;;;;;5019173;28;20025;-84
2024/04/02 00:25:15;;;;;;;0.10;0.10;;;9.70;80.80;;;;;;5018842;28;20080;-81
2024/04/02 00:27:41;;;;;;;0.00;0.00;;;9.70;80.60;;;;;;5017932;28;20030;-83
2024/04/02 00:30:07;;;;;;;0.10;0.10;;;9.70;80.60;;;;;;5019190;28;20034;-83
2024/04/02 00:32:32;;;;;;;0.10;0.10;;;9.60;80.70;;;;;;5018897;28;20547;-83
2024/04/02 00:34:58;;;;;;;0.10;0.10;;;9.60;80.70;;;;;;5018348;28;20029;-83
2024/04/02 00:37:24;;;;;;;0.10;0.10;;;9.60;80.80;;;;;;5018809;28;20057;-84
2024/04/02 00:39:50;;;;;;;0.10;0.10;;;9.60;80.70;;;;;;5026743;28;20033;-83
2024/04/02 00:42:16;;;;;;;0.10;0.10;;;9.60;80.70;;;;;;5018363;28;20030;-83
2024/04/02 00:44:42;;;;;;;0.10;0.10;;;9.60;80.70;;;;;;5000284;28;20034;-84
2024/04/02 00:47:09;;;;;;;0.10;0.10;;;9.60;80.70;;;;;;5016930;28;20037;-83
2024/04/02 00:49:36;;;;;;;0.10;0.10;;;9.60;80.90;;;;;;5018653;28;20034;-84
2024/04/02 00:52:02;;;;;;;0.10;0.10;;;9.60;80.80;;;;;;5017235;28;20052;-81
2024/04/02 00:54:31;;;;;;;0.10;0.10;;;9.60;80.70;;;;;;5016815;28;20028;-83
2024/04/02 00:56:56;;;;;;;0.10;0.10;;;9.60;80.70;;;;;;5016999;28;20042;-82
2024/04/02 00:59:22;;;;;;;0.10;0.10;;;9.70;80.70;;;;;;5032520;28;20024;-83
2024/04/02 01:01:50;;;;;;;0.10;0.10;;;9.70;80.70;;;;;;5036611;28;20045;-83
2024/04/02 01:04:17;;;;;;;0.10;0.10;;;9.60;80.80;;;;;;5041043;28;20048;-83
2024/04/02 01:06:43;;;;;;;0.10;0.10;;;9.60;80.70;;;;;;5018414;28;20036;-84
2024/04/02 01:09:08;;;;;;;0.10;0.10;;;9.60;80.90;;;;;;5037581;28;20065;-83
2024/04/02 01:11:35;;;;;;;0.10;0.10;;;9.60;80.90;;;;;;5037666;28;20032;-83
2024/04/02 01:14:01;;;;;;;0.10;0.10;;;9.70;80.90;;;;;;5010742;28;20483;-83
2024/04/02 01:16:27;;;;;;;0.03;0.03;;;9.60;80.90;;;;;;5037304;28;20381;-83
2024/04/02 01:18:52;;;;;;;0.10;0.10;;;9.70;80.90;;;;;;5020076;28;20028;-83
2024/04/02 01:21:20;;;;;;;0.10;0.10;;;9.70;81.00;;;;;;5043181;28;20041;-83
2024/04/02 01:23:46;;;;;;;0.10;0.10;;;9.70;80.90;;;;;;5036941;28;20022;-81
2024/04/02 01:26:12;;;;;;;0.10;0.10;;;9.70;81.10;;;;;;5073768;28;20077;-83
2024/04/02 01:28:38;;;;;;;0.10;0.10;;;9.60;81.20;;;;;;5077327;28;20074;-83
2024/04/02 01:31:04;;;;;;;0.10;0.10;;;9.60;81.40;;;;;;5048962;28;20033;-83
2024/04/02 01:33:30;;;;;;;0.10;0.10;;;9.60;81.40;;;;;;5057203;28;20029;-83
2024/04/02 01:35:56;;;;;;;0.10;0.10;;;9.60;81.50;;;;;;5057215;28;20396;-83
2024/04/02 01:38:21;;;;;;;0.10;0.10;;;9.60;81.60;;;;;;5037879;28;20772;-83
2024/04/02 01:40:47;;;;;;;0.10;0.10;;;9.60;81.50;;;;;;5056630;28;20024;-83
2024/04/02 01:43:13;;;;;;;0.10;0.10;;;9.60;81.50;;;;;;5055445;28;20506;-84
2024/04/02 01:45:38;;;;;;;0.10;0.10;;;9.60;81.70;;;;;;5038909;28;20028;-84
2024/04/02 01:48:04;;;;;;;0.10;0.10;;;9.60;81.80;;;;;;5057035;28;20025;-83
2024/04/02 01:50:30;;;;;;;0.10;0.10;;;9.60;81.90;;;;;;5046416;28;20029;-83
2024/04/02 01:52:56;;;;;;;0.10;0.10;;;9.50;81.80;;;;;;5036672;28;20044;-82
2024/04/02 01:55:22;;;;;;;0.10;0.10;;;9.60;82.00;;;;;;5036965;28;20024;-82
2024/04/02 01:57:47;;;;;;;0.10;0.10;;;9.60;81.90;;;;;;5036452;28;20396;-82
2024/04/02 02:00:14;;;;;;;0.10;0.10;;;9.60;81.90;;;;;;5036255;28;20097;-83
2024/04/02 02:02:40;;;;;;;0.10;0.10;;;9.60;82.00;;;;;;5038702;28;20025;-82
2024/04/02 02:05:06;;;;;;;0.10;0.10;;;9.60;82.00;;;;;;5047940;28;20545;-82
2024/04/02 02:07:32;;;;;;;0.10;0.10;;;9.70;82.10;;;;;;5035776;28;20471;-82
2024/04/02 02:09:57;;;;;;;0.10;0.10;;;9.70;82.00;;;;;;5041923;28;20419;-83
2024/04/02 02:12:23;;;;;;;0.10;0.10;;;9.60;82.20;;;;;;5036302;28;20089;-82
2024/04/02 02:14:48;;;;;;;0.10;0.10;;;9.50;82.60;;;;;;5036291;28;20018;-81
2024/04/02 02:17:14;;;;;;;0.10;0.10;;;9.60;82.70;;;;;;5035406;28;20022;-81
2024/04/02 02:19:39;;;;;;;0.10;0.10;;;9.60;82.70;;;;;;5036426;28;20498;-82
2024/04/02 02:22:06;;;;;;;0.10;0.10;;;9.60;82.70;;;;;;5019018;28;20057;-82
2024/04/02 02:24:31;;;;;;;0.10;0.10;;;9.60;82.60;;;;;;5016607;28;20104;-82
2024/04/02 02:26:58;;;;;;;0.10;0.10;;;9.60;82.60;;;;;;5016847;28;20069;-81
2024/04/02 02:29:25;;;;;;;0.10;0.10;;;9.60;82.50;;;;;;5016395;28;20032;-82
2024/04/02 02:31:52;;;;;;;0.10;0.10;;;9.60;82.60;;;;;;5035945;28;20065;-82
2024/04/02 02:34:17;;;;;;;0.10;0.10;;;9.50;82.70;;;;;;5022143;28;20022;-82
2024/04/02 02:36:43;;;;;;;0.10;0.10;;;9.50;82.60;;;;;;5016643;28;20096;-82
2024/04/02 02:39:13;;;;;;;0.10;0.10;;;9.50;82.90;;;;;;5023151;28;20468;-82
2024/04/02 02:41:38;;;;;;;0.10;0.10;;;9.50;82.90;;;;;;5026877;28;20038;-82
2024/04/02 02:44:05;;;;;;;0.10;0.10;;;9.50;82.80;;;;;;5016629;28;20032;-82
2024/04/02 02:46:31;;;;;;;0.10;0.10;;;9.50;82.80;;;;;;5015281;28;20040;-82
2024/04/02 02:48:58;;;;;;;0.10;0.10;;;9.50;82.80;;;;;;4999023;28;20037;-82
2024/04/02 02:51:24;;;;;;;0.10;0.10;;;9.60;82.70;;;;;;5015939;28;20109;-82
2024/04/02 02:53:49;;;;;;;0.10;0.10;;;9.60;82.80;;;;;;5015849;28;20072;-82
2024/04/02 02:56:15;;;;;;;0.10;0.10;;;9.50;82.80;;;;;;4998856;28;20136;-82
2024/04/02 02:58:41;;;;;;;0.10;0.10;;;9.60;82.90;;;;;;5016298;28;20026;-82
2024/04/02 03:01:07;;;;;;;0.10;0.10;;;9.50;82.70;;;;;;5016341;28;20030;-82
2024/04/02 03:03:33;;;;;;;0.10;0.10;;;9.50;82.70;;;;;;5025963;28;20400;-82
2024/04/02 03:05:59;;;;;;;0.10;0.10;;;9.50;82.80;;;;;;5035910;28;20083;-82
2024/04/02 03:08:25;;;;;;;0.10;0.10;;;9.50;82.90;;;;;;5018948;28;20017;-82
2024/04/02 03:11:11;;;;;;;0.10;0.10;;;9.50;82.80;;;;;;5035754;28;20381;-82
2024/04/02 03:13:36;;;;;;;0.10;0.10;;;9.50;82.70;;;;;;5017974;28;20056;-82
2024/04/02 03:16:03;;;;;;;0.10;0.10;;;9.50;82.60;;;;;;5028656;28;20396;-82
2024/04/02 03:18:30;;;;;;;0.10;0.10;;;9.40;82.80;;;;;;5034910;28;20104;-82
2024/04/02 03:20:56;;;;;;;0.10;0.10;;;9.40;82.90;;;;;;5035498;28;20041;-82
2024/04/02 03:23:22;;;;;;;0.10;0.10;;;9.40;83.00;;;;;;5018321;28;20041;-82
2024/04/02 03:26:14;;;;;;;0.10;0.10;;;9.60;83.00;;;;;;5017753;28;20113;-82
2024/04/02 03:28:40;;;;;;;0.10;0.10;;;9.60;82.70;;;;;;5010291;28;20041;-82
2024/04/02 03:31:06;;;;;;;0.10;0.10;;;9.70;82.50;;;;;;5014398;28;20026;-82
2024/04/02 03:33:32;;;;;;;0.10;0.10;;;9.70;82.30;;;;;;5016424;28;20037;-82
2024/04/02 03:36:03;;;;;;;0.10;0.10;;;9.70;82.20;;;;;;5019889;28;20551;-82
2024/04/02 03:38:29;;;;;;;0.10;0.10;;;9.70;82.10;;;;;;5019997;28;20038;-82
2024/04/02 03:40:54;;;;;;;0.10;0.10;;;9.60;82.00;;;;;;5039619;28;21116;-82
2024/04/02 03:43:20;;;;;;;0.10;0.10;;;9.60;82.00;;;;;;5039266;28;20034;-82
2024/04/02 03:45:46;;;;;;;0.10;0.10;;;9.60;81.90;;;;;;5029378;28;20026;-82
2024/04/02 03:48:12;;;;;;;0.10;0.10;;;9.60;82.00;;;;;;5017969;28;20069;-82
2024/04/02 03:50:38;;;;;;;0.10;0.10;;;9.50;81.80;;;;;;5019308;28;20473;-82
2024/04/02 03:53:05;;;;;;;0.10;0.10;;;9.50;82.00;;;;;;5018321;28;20030;-82
2024/04/02 03:55:37;;;;;;;0.10;0.10;;;9.60;82.00;;;;;;5018144;28;20026;-82
2024/04/02 03:58:04;;;;;;;0.10;0.10;;;9.60;82.00;;;;;;5019050;28;20050;-82
2024/04/02 04:00:30;;;;;;;0.10;0.10;;;9.70;81.80;;;;;;5019199;28;20104;-82
2024/04/02 04:02:56;;;;;;;0.10;0.10;;;9.70;81.80;;;;;;5021765;28;20036;-82
2024/04/02 04:05:22;;;;;;;0.10;0.10;;;9.70;81.60;;;;;;5039021;28;20025;-82
2024/04/02 04:07:48;;;;;;;0.10;0.10;;;9.70;81.60;;;;;;5008094;28;20045;-82
2024/04/02 04:10:13;;;;;;;0.10;0.10;;;9.60;81.90;;;;;;5033660;28;20120;-82
2024/04/02 04:12:39;;;;;;;0.10;0.10;;;9.60;81.80;;;;;;5021258;28;20037;-81
2024/04/02 04:15:05;;;;;;;0.10;0.10;;;9.60;81.80;;;;;;5027228;28;20396;-82
2024/04/02 04:17:30;;;;;;;0.10;0.10;;;9.60;81.60;;;;;;5018685;28;20065;-82
2024/04/02 04:19:56;;;;;;;0.10;0.10;;;9.50;81.80;;;;;;5021717;28;20013;-82
2024/04/02 04:22:22;;;;;;;0.10;0.10;;;9.50;82.10;;;;;;5020097;28;20045;-81
2024/04/02 04:25:02;;;;;;;0.03;0.03;;;9.50;82.40;;;;;;5020518;28;20040;-80
2024/04/02 04:27:32;;;;;;;0.10;0.10;;;9.40;82.40;;;;;;5025675;28;20034;-81
2024/04/02 04:29:59;;;;;;;0.10;0.10;;;9.40;82.40;;;;;;5017835;28;20388;-81
2024/04/02 04:32:24;;;;;;;0.10;0.10;;;9.40;82.50;;;;;;5027164;28;20021;-83
2024/04/02 04:34:50;;;;;;;0.10;0.10;;;9.40;82.60;;;;;;5036210;28;20034;-83
2024/04/02 04:37:16;;;;;;;0.10;0.10;;;9.50;82.60;;;;;;5038075;28;20049;-84
2024/04/02 04:39:41;;;;;;;0.10;0.10;;;9.50;82.50;;;;;;5016511;28;20033;-84
2024/04/02 04:42:07;;;;;;;0.10;0.10;;;9.40;82.50;;;;;;5024967;28;20041;-84
2024/04/02 04:44:32;;;;;;;0.10;0.10;;;9.40;82.50;;;;;;5016319;28;20025;-84
2024/04/02 04:46:59;;;;;;;0.10;0.10;;;9.30;82.50;;;;;;5018377;28;20096;-84
2024/04/02 04:49:25;;;;;;;0.10;0.10;;;9.30;82.70;;;;;;5027333;28;20022;-85
2024/04/02 04:51:50;;;;;;;0.15;0.15;;;9.20;82.80;;;;;;5033834;28;20523;-85
2024/04/02 04:54:16;;;;;;;0.10;0.10;;;9.20;83.00;;;;;;5000589;28;20030;-84
2024/04/02 04:56:41;;;;;;;0.10;0.10;;;9.20;83.10;;;;;;5017966;28;20027;-85
2024/04/02 04:59:07;;;;;;;0.10;0.10;;;9.20;83.10;;;;;;4999939;28;20033;-81
2024/04/02 05:01:32;;;;;;;0.10;0.10;;;9.10;83.20;;;;;;5017425;28;20396;-84
2024/04/02 05:03:58;;;;;;;0.05;0.05;;;9.20;82.80;;;;;;5037256;28;20037;-78
2024/04/02 05:06:24;;;;;;;0.10;0.10;;;9.30;82.50;;;;;;5015687;28;20033;-79
2024/04/02 05:08:49;;;;;;;0.10;0.10;;;9.30;82.50;;;;;;5022700;28;20029;-82
2024/04/02 05:11:15;;;;;;;0.10;0.10;;;9.30;82.10;;;;;;5037820;28;20402;-78
2024/04/02 05:13:40;;;;;;;0.10;0.10;;;9.30;82.00;;;;;;5020422;28;20101;-79
2024/04/02 05:16:07;;;;;;;0.10;0.10;;;9.30;81.80;;;;;;5017666;28;20160;-79
2024/04/02 05:18:35;;;;;;;0.10;0.10;;;9.30;81.80;;;;;;5019623;28;20476;-78
2024/04/02 05:21:03;;;;;;;0.10;0.10;;;9.30;81.60;;;;;;5016997;28;20045;-82
2024/04/02 05:23:29;;;;;;;0.03;0.03;;;9.30;81.50;;;;;;5014431;28;20423;-83
2024/04/02 05:25:58;;;;;;;0.10;0.10;;;9.30;81.60;;;;;;5034407;28;20021;-81
2024/04/02 05:28:24;;;;;;;0.10;0.10;;;9.20;81.60;;;;;;5016287;28;20029;-81
2024/04/02 05:30:49;;;;;;;0.10;0.10;;;9.20;81.60;;;;;;5033464;28;20024;-84
2024/04/02 05:33:15;;;;;;;0.10;0.10;;;9.20;81.60;;;;;;5032875;28;20116;-82
2024/04/02 05:35:41;;;;;;;0.10;0.10;;;9.10;81.60;;;;;;5035293;28;20017;-83
2024/04/02 05:38:07;;;;;;;0.10;0.10;;;9.10;81.60;;;;;;5021410;28;20029;-83
2024/04/02 05:40:33;;;;;;;0.10;0.10;;;9.10;81.50;;;;;;5035379;28;20128;-82
2024/04/02 05:42:59;;;;;;;0.10;0.10;;;9.10;81.50;;;;;;5036972;28;20104;-82
2024/04/02 05:45:24;;;;;;;0.10;0.10;;;9.10;81.70;;;;;;5034342;28;20095;-82
2024/04/02 05:47:50;;;;;;;0.10;0.10;;;9.00;81.60;;;;;;5036164;28;20611;-82
2024/04/02 05:50:17;;;;;;;0.10;0.10;;;9.00;81.60;;;;;;5018507;28;20618;-84
2024/04/02 05:52:43;;;;;;;0.10;0.10;;;9.10;81.60;;;;;;5015890;28;20121;-83
2024/04/02 05:55:09;;;;;;;0.10;0.10;;;9.10;81.30;;;;;;5016459;28;20065;-83
2024/04/02 05:57:35;;;;;;;0.10;0.10;;;9.10;81.40;;;;;;5016432;28;20068;-84
2024/04/02 06:00:00;;;;;;;0.10;0.10;;;9.10;81.20;;;;;;5015538;28;20053;-84
2024/04/02 06:02:26;;;;;;;0.10;0.10;;;9.20;81.20;;;;;;5016737;28;20036;-84
2024/04/02 06:04:52;;;;;;;0.10;0.10;;;9.20;81.00;;;;;;5019742;28;20029;-84
2024/04/02 06:07:18;;;;;;;0.10;0.10;;;9.20;80.90;;;;;;5052270;28;20030;-84
2024/04/02 06:09:44;;;;;;;0.10;0.10;;;9.30;80.80;;;;;;5018708;28;20032;-84
2024/04/02 06:12:09;;;;;;;0.10;0.10;;;9.30;80.70;;;;;;5018351;28;20026;-85
2024/04/02 06:14:35;;;;;;;0.10;0.10;;;9.20;80.90;;;;;;5016719;28;20030;-84
2024/04/02 06:17:01;;;;;;;0.10;0.10;;;9.10;81.20;;;;;;5015676;28;20488;-84
2024/04/02 06:19:27;;;;;;;0.10;0.10;;;9.20;81.00;;;;;;5016928;28;20034;-84
2024/04/02 06:21:52;;;;;;;0.10;0.10;;;9.20;81.10;;;;;;5030213;28;20049;-84
2024/04/02 06:24:18;;;;;;;0.10;0.10;;;9.20;81.00;;;;;;5035312;28;20044;-84
2024/04/02 06:26:44;;;;;;;0.10;0.10;;;9.30;80.90;;;;;;5036681;28;20033;-84
2024/04/02 06:29:10;;;;;;;0.10;0.10;;;9.30;80.90;;;;;;5036394;28;20491;-84
2024/04/02 06:31:36;;;;;;;0.10;0.10;;;9.40;80.90;;;;;;5036488;28;20138;-85
2024/04/02 06:34:01;;;;;;;0.10;0.10;;;9.40;81.00;;;;;;5036659;28;20030;-84
2024/04/02 06:36:29;;;;;;;0.10;0.10;;;9.50;81.20;;;;;;5035337;28;20033;-84
2024/04/02 06:38:55;;;;;;;0.10;0.10;;;9.60;81.20;;;;;;5040268;28;20032;-84
2024/04/02 06:41:21;;;;;;;0.10;0.10;;;9.70;80.90;;;;;;5056081;28;20009;-84
2024/04/02 06:43:46;;;;;;;0.10;0.10;;;9.80;80.80;;;;;;5035222;28;20083;-83
2024/04/02 06:46:12;;;;;;;0.10;0.10;;;9.90;80.70;;;;;;5036539;28;20643;-83
2024/04/02 06:48:38;;;;;;;0.10;0.10;;;10.00;80.50;;;;;;5036061;28;20534;-83
2024/04/02 06:51:05;;;;;;;0.10;0.10;;;10.20;80.40;;;;;;5036251;28;20063;-84
2024/04/02 06:53:32;;;;;;;0.10;0.10;;;10.20;80.20;;;;;;5036263;28;20021;-83
2024/04/02 06:55:58;;;;;;;0.10;0.10;;;10.30;80.10;;;;;;5036459;28;21180;-84
2024/04/02 06:58:24;;;;;;;0.10;0.10;;;10.30;80.00;;;;;;5036162;28;20537;-83
2024/04/02 07:00:50;;;;;;;0.10;0.10;;;10.40;79.70;;;;;;5036119;28;20102;-83
2024/04/02 07:03:21;;;;;;;0.10;0.10;;;10.40;79.70;;;;;;5042314;28;20059;-83
2024/04/02 07:05:48;;;;;;;0.10;0.10;;;10.40;79.80;;;;;;5054895;28;20056;-84
2024/04/02 07:08:14;;;;;;;0.10;0.10;;;10.60;79.70;;;;;;5058140;28;20029;-84
2024/04/02 07:10:42;;;;;;;0.10;0.10;;;10.70;79.50;;;;;;5061721;28;20025;-83
2024/04/02 07:13:08;;;;;;;0.10;0.10;;;11.00;79.00;;;;;;5040330;28;20036;-84
2024/04/02 07:15:35;;;;;;;0.17;0.17;;;11.20;78.20;;;;;;5040190;28;20022;-84
2024/04/02 07:18:01;;;;;;;0.20;0.20;;;11.30;77.80;;;;;;5038700;28;20302;-85
2024/04/02 07:20:26;;;;;;;0.20;0.20;;;11.70;77.30;;;;;;5036213;28;20065;-84
2024/04/02 07:22:52;;;;;;;0.20;0.20;;;12.20;75.90;;;;;;5020021;28;20038;-84
2024/04/02 07:25:18;;;;;;;0.20;0.20;;;12.80;74.50;;;;;;5018834;28;20033;-84
2024/04/02 07:27:46;;;;;;;0.20;0.20;;;13.00;73.10;;;;;;5024413;28;20060;-83
2024/04/02 07:30:12;;;;;;;0.20;0.20;;;13.00;73.80;;;;;;5021885;28;20025;-83
2024/04/02 07:32:38;;;;;;;0.25;0.25;;;13.80;71.80;;;;;;5039779;28;20496;-84
2024/04/02 07:35:04;;;;;;;0.20;0.20;;;14.30;70.40;;;;;;5020128;28;20030;-85
2024/04/02 07:37:29;;;;;;;0.10;0.10;;;14.50;69.00;;;;;;5019757;28;20503;-84
2024/04/02 07:39:55;;;;;;;0.10;0.10;;;14.20;69.70;;;;;;5032819;28;20017;-84
2024/04/02 07:42:21;;;;;;;0.10;0.10;;;13.70;71.10;;;;;;5021360;28;20044;-84
2024/04/02 07:44:46;;;;;;;0.10;0.10;;;13.60;72.00;;;;;;5039314;28;20035;-85
2024/04/02 07:47:12;;;;;;;0.10;0.10;;;13.10;73.30;;;;;;5021512;28;20036;-84
2024/04/02 07:49:38;;;;;;;0.10;0.10;;;12.70;74.90;;;;;;5037031;28;20395;-83
2024/04/02 07:52:04;;;;;;;0.10;0.10;;;12.40;75.80;;;;;;5019325;28;20030;-83
2024/04/02 07:54:30;;;;;;;0.10;0.10;;;12.30;76.50;;;;;;5018366;28;20018;-83
2024/04/02 07:56:55;;;;;;;0.10;0.10;;;12.30;77.20;;;;;;5018132;28;20032;-83
2024/04/02 07:59:22;;;;;;;0.10;0.10;;;12.30;77.30;;;;;;5019296;28;20022;-83
2024/04/02 08:01:48;;;;;;;0.10;0.10;;;12.30;77.40;;;;;;5019333;28;20041;-85
2024/04/02 08:04:14;;;;;;;0.10;0.10;;;12.30;77.50;;;;;;5033990;28;20029;-84
2024/04/02 08:06:42;;;;;;;0.10;0.10;;;12.30;77.40;;;;;;5026524;28;20033;-87
2024/04/02 08:09:08;;;;;;;0.10;0.10;;;12.20;77.90;;;;;;5031016;28;20088;-85
2024/04/02 08:11:33;;;;;;;0.10;0.10;;;12.30;77.90;;;;;;5017631;28;20515;-85
2024/04/02 08:13:59;;;;;;;0.10;0.10;;;12.30;78.10;;;;;;5039167;28;20092;-84
2024/04/02 08:16:25;;;;;;;0.10;0.10;;;12.40;78.10;;;;;;5038882;28;20528;-84
2024/04/02 08:18:50;;;;;;;0.10;0.10;;;12.50;77.90;;;;;;5032159;28;20018;-84
2024/04/02 08:21:16;;;;;;;0.10;0.10;;;12.60;78.20;;;;;;5031623;28;20044;-84
2024/04/02 08:23:42;;;;;;;0.10;0.10;;;12.80;78.50;;;;;;5032242;28;20022;-84
2024/04/02 08:26:07;;;;;;;0.10;0.10;;;12.70;78.80;;;;;;5017731;28;20026;-84
2024/04/02 08:28:33;;;;;;;0.10;0.10;;;12.70;78.70;;;;;;5018676;28;20040;-85
2024/04/02 08:30:59;;;;;;;0.10;0.10;;;12.80;78.60;;;;;;5019079;28;20028;-84
2024/04/02 08:33:26;;;;;;;0.20;0.20;;;12.90;78.40;;;;;;5017390;28;20046;-85
2024/04/02 08:35:52;;;;;;;0.10;0.10;;;13.10;78.90;;;;;;5018511;28;20554;-84
2024/04/02 08:38:18;;;;;;;0.00;0.00;;;13.30;78.80;;;;;;5018715;28;20076;-86
2024/04/02 08:40:51;;;;;;;0.10;0.10;;;13.20;78.20;;;;;;5038381;28;20053;-84
2024/04/02 08:43:17;;;;;;;0.10;0.10;;;12.90;79.20;;;;;;5019627;28;20041;-85
2024/04/02 08:45:44;;;;;;;0.10;0.10;;;12.70;79.90;;;;;;5018378;28;20038;-84
2024/04/02 08:48:10;;;;;;;0.10;0.10;;;12.70;80.50;;;;;;5018692;28;20034;-84
2024/04/02 08:50:38;;;;;;;0.10;0.10;;;12.70;80.80;;;;;;5018699;28;20026;-85
2024/04/02 08:53:04;;;;;;;0.10;0.10;;;12.50;80.90;;;;;;5018282;28;20033;-85
2024/04/02 08:55:30;;;;;;;0.10;0.10;;;12.50;81.50;;;;;;5018056;28;20029;-84
2024/04/02 08:57:57;;;;;;;0.10;0.10;;;12.40;81.70;;;;;;5017452;28;20354;-85
2024/04/02 09:00:24;;;;;;;0.10;0.10;;;12.40;81.80;;;;;;5016989;28;20025;-85
2024/04/02 09:02:52;;;;;;;0.10;0.10;;;12.30;82.30;;;;;;5021648;28;20094;-85
2024/04/02 09:05:18;;;;;;;0.10;0.10;;;12.30;82.80;;;;;;5025894;28;20109;-83
2024/04/02 09:07:43;;;;;;;0.10;0.10;;;12.30;83.30;;;;;;5058078;28;20071;-86
2024/04/02 09:10:09;;;;;;;0.10;0.10;;;12.30;83.90;;;;;;5041338;28;20021;-85
2024/04/02 09:12:34;;;;;;;0.10;0.10;;;12.10;84.30;;;;;;5037641;28;20479;-83
2024/04/02 09:15:00;;;;;;;0.10;0.10;;;12.10;84.80;;;;;;5020329;28;20021;-84
2024/04/02 09:17:26;;;;;;;0.10;0.10;;;12.20;85.00;;;;;;5020597;28;20025;-85
2024/04/02 09:19:51;;;;;;;0.10;0.10;;;12.20;85.10;;;;;;5017788;28;20048;-84
2024/04/02 09:22:17;;;;;;;0.10;0.10;;;12.30;85.00;;;;;;5031835;28;20435;-84
2024/04/02 09:24:43;;;;;;;0.10;0.10;;;12.30;84.80;;;;;;5017579;28;20029;-83
2024/04/02 09:27:10;;;;;;;0.10;0.10;;;12.40;85.10;;;;;;5027757;28;20041;-85
2024/04/02 09:29:36;;;;;;;0.10;0.10;;;12.50;84.90;;;;;;5037753;28;20075;-84
2024/04/02 09:32:05;;;;;;;0.10;0.10;;;12.70;84.80;;;;;;5051054;28;20116;-83
2024/04/02 09:34:33;;;;;;;0.10;0.10;;;12.90;84.70;;;;;;5036204;28;20030;-83
2024/04/02 09:37:24;;;;;;;0.17;0.17;;;12.90;84.10;;;;;;5026318;28;20157;-84
2024/04/02 09:39:53;;;;;;;0.10;0.10;;;12.90;84.20;;;;;;5030177;28;20077;-82
2024/04/02 09:42:20;;;;;;;0.00;0.00;;;13.00;84.10;;;;;;5036030;28;20084;-83
2024/04/02 09:44:49;;;;;;;0.10;0.10;;;13.10;83.70;;;;;;5037270;28;20387;-83
2024/04/02 09:47:18;;;;;;;0.10;0.10;;;13.20;83.90;;;;;;5034889;28;20060;-83
2024/04/02 09:49:44;;;;;;;0.10;0.10;;;13.00;83.50;;;;;;5036214;28;20060;-83
2024/04/02 09:52:10;;;;;;;0.10;0.10;;;13.10;83.40;;;;;;5015750;28;20026;-83
2024/04/02 09:54:36;;;;;;;0.10;0.10;;;13.10;83.40;;;;;;5017340;28;20061;-83
2024/04/02 09:57:03;;;;;;;0.10;0.10;;;13.30;83.30;;;;;;5016092;28;20401;-84
2024/04/02 09:59:29;;;;;;;0.10;0.10;;;13.40;82.50;;;;;;5017442;28;20029;-84
2024/04/02 10:01:56;;;;;;;0.10;0.10;;;13.40;81.90;;;;;;5016844;28;20033;-84
2024/04/02 10:04:22;;;;;;;0.10;0.10;;;13.40;81.90;;;;;;5026787;28;20087;-83
2024/04/02 10:06:52;;;;;;;0.10;0.10;;;13.40;82.10;;;;;;5017160;28;20037;-84
2024/04/02 10:09:18;;;;;;;0.10;0.10;;;13.60;82.20;;;;;;5019643;28;20034;-85
2024/04/02 10:11:48;;;;;;;0.10;0.10;;;13.40;81.70;;;;;;5016788;28;20037;-84
2024/04/02 10:14:15;;;;;;;0.10;0.10;;;13.30;81.60;;;;;;5017427;28;20022;-85
2024/04/02 10:16:43;;;;;;;0.10;0.10;;;13.10;81.70;;;;;;5050940;28;20068;-84
2024/04/02 10:19:13;;;;;;;0.10;0.10;;;13.10;82.70;;;;;;5016721;28;20034;-84
2024/04/02 10:21:39;;;;;;;0.10;0.10;;;13.10;83.20;;;;;;5016751;28;20050;-84
2024/04/02 10:24:06;;;;;;;0.10;0.10;;;13.20;83.40;;;;;;5016828;28;20022;-83
2024/04/02 10:26:32;;;;;;;0.10;0.10;;;13.30;83.20;;;;;;5016866;28;20061;-84
2024/04/02 10:28:59;;;;;;;0.15;0.15;;;13.40;83.00;;;;;;5016489;28;20045;-83
2024/04/02 10:31:42;;;;;;;0.10;0.10;;;13.50;82.70;;;;;;5015491;28;20026;-83
2024/04/02 10:34:11;;;;;;;0.10;0.10;;;13.80;82.30;;;;;;5017161;28;20022;-85
2024/04/02 10:36:41;;;;;;;0.10;0.10;;;14.10;81.60;;;;;;5015251;28;20037;-84
2024/04/02 10:39:11;;;;;;;0.10;0.10;;;14.30;80.90;;;;;;5023104;28;20041;-84
2024/04/02 10:41:40;;;;;;;0.10;0.10;;;14.20;80.90;;;;;;5035003;28;20021;-85
2024/04/02 10:44:06;;;;;;;0.00;0.00;;;14.10;80.10;;;;;;5036330;28;20033;-84
2024/04/02 10:46:32;;;;;;;0.10;0.10;;;13.90;80.60;;;;;;5017440;28;20029;-84
2024/04/02 10:48:59;;;;;;;0.10;0.10;;;13.80;81.00;;;;;;5016420;28;20033;-82
2024/04/02 10:51:29;;;;;;;0.10;0.10;;;13.70;81.00;;;;;;5016551;28;20435;-83
2024/04/02 10:53:56;;;;;;;0.10;0.10;;;13.50;81.40;;;;;;5016553;28;20068;-85
2024/04/02 10:56:24;;;;;;;0.10;0.10;;;13.30;81.30;;;;;;5015333;28;20381;-83
2024/04/02 10:58:51;;;;;;;0.10;0.10;;;13.30;81.70;;;;;;5038640;28;20513;-84
2024/04/02 11:01:18;;;;;;;0.10;0.10;;;13.30;81.70;;;;;;5038660;28;20029;-86
2024/04/02 11:03:45;;;;;;;0.10;0.10;;;13.40;81.50;;;;;;5022945;28;20022;-86
2024/04/02 11:06:10;;;;;;;0.10;0.10;;;13.50;81.20;;;;;;5015405;28;20022;-83
2024/04/02 11:08:38;;;;;;;0.10;0.10;;;13.30;80.90;;;;;;5017605;28;20152;-83
2024/04/02 11:11:07;;;;;;;0.10;0.10;;;13.30;81.00;;;;;;5020932;28;20022;-84
2024/04/02 11:13:33;;;;;;;0.10;0.10;;;13.30;81.00;;;;;;5017260;28;20041;-85
2024/04/02 11:15:59;;;;;;;0.10;0.10;;;13.50;80.90;;;;;;5018409;28;20144;-83
2024/04/02 11:18:25;;;;;;;0.10;0.10;;;13.70;80.50;;;;;;5033754;28;20060;-83
2024/04/02 11:21:00;;;;;;;0.10;0.10;;;13.90;79.40;;;;;;5016191;28;20116;-83
2024/04/02 11:26:21;;;;;;;0.10;0.10;;;14.00;78.50;;;;;;5016566;28;20061;-84
2024/04/02 11:28:46;;;;;;;0.10;0.10;;;14.10;77.90;;;;;;5014916;28;20053;-83
2024/04/02 11:31:13;;;;;;;0.10;0.10;;;14.00;78.00;;;;;;5016346;28;20527;-83
2024/04/02 11:33:39;;;;;;;0.10;0.10;;;14.10;77.40;;;;;;5015993;28;20085;-84
2024/04/02 11:36:07;;;;;;;0.10;0.10;;;14.20;76.80;;;;;;5017862;28;20104;-83
2024/04/02 11:38:36;;;;;;;0.10;0.10;;;14.20;75.10;;;;;;5048911;28;20388;-83
2024/04/02 11:41:05;;;;;;;0.10;0.10;;;14.30;75.00;;;;;;5030981;28;20021;-83
2024/04/02 11:43:32;;;;;;;0.10;0.10;;;14.30;75.40;;;;;;5018135;28;20033;-84
2024/04/02 11:45:58;;;;;;;0.10;0.10;;;14.30;75.30;;;;;;5035686;28;20034;-84
2024/04/02 11:48:24;;;;;;;0.10;0.10;;;14.40;74.60;;;;;;5008498;28;20030;-82
2024/04/02 11:50:50;;;;;;;0.10;0.10;;;14.40;73.90;;;;;;5015123;28;20168;-85
2024/04/02 11:53:16;;;;;;;0.10;0.10;;;14.30;73.70;;;;;;5015824;28;20033;-84
2024/04/02 11:55:42;;;;;;;0.10;0.10;;;14.50;73.10;;;;;;5017785;28;20115;-83
2024/04/02 12:00:53;;;;;;;0.10;0.10;;;14.30;72.60;;;;;;5019695;28;20029;-83
2024/04/02 12:03:18;;;;;;;0.10;0.10;;;14.40;71.60;;;;;;5025439;28;20596;-83
2024/04/02 12:05:44;;;;;;;0.10;0.10;;;14.60;72.20;;;;;;5038788;28;20033;-86
2024/04/02 12:08:10;;;;;;;0.10;0.10;;;14.70;71.00;;;;;;5038898;28;20543;-83
2024/04/02 12:10:36;;;;;;;0.10;0.10;;;14.90;71.30;;;;;;5021019;28;20048;-83
2024/04/02 12:13:03;;;;;;;0.10;0.10;;;15.20;69.80;;;;;;5021284;28;20506;-83
2024/04/02 12:15:29;;;;;;;0.10;0.10;;;15.30;69.40;;;;;;5021435;28;20091;-83
2024/04/02 12:17:55;;;;;;;0.10;0.10;;;15.30;68.50;;;;;;5025291;28;20109;-84
2024/04/02 12:20:21;;;;;;;0.10;0.10;;;15.30;68.60;;;;;;5017788;28;20520;-84
2024/04/02 12:22:46;;;;;;;0.10;0.10;;;15.20;67.90;;;;;;5019262;28;20026;-84
2024/04/02 12:25:12;;;;;;;0.10;0.10;;;15.20;68.30;;;;;;5024598;28;20044;-83
2024/04/02 12:27:37;;;;;;;0.10;0.10;;;15.10;67.90;;;;;;5018615;28;20060;-84
2024/04/02 12:30:04;;;;;;;0.10;0.10;;;15.10;68.20;;;;;;5019107;28;20508;-84
2024/04/02 12:32:32;;;;;;;0.10;0.10;;;14.90;67.80;;;;;;5018901;28;20030;-83
2024/04/02 12:34:58;;;;;;;0.10;0.10;;;14.90;68.30;;;;;;5017266;28;20030;-83
2024/04/02 12:37:23;;;;;;;0.10;0.10;;;14.90;68.00;;;;;;5018841;28;20018;-84
2024/04/02 12:39:49;;;;;;;0.10;0.10;;;15.00;68.30;;;;;;5046493;28;20072;-84
2024/04/02 12:42:16;;;;;;;0.10;0.10;;;15.10;67.50;;;;;;5020413;28;20507;-84
2024/04/02 12:44:43;;;;;;;0.10;0.10;;;15.10;67.40;;;;;;5020463;28;20636;-84
2024/04/02 12:47:09;;;;;;;0.10;0.10;;;15.10;66.10;;;;;;5038100;28;20052;-83
2024/04/02 12:49:38;;;;;;;0.10;0.10;;;15.20;66.20;;;;;;5037157;28;20026;-83
2024/04/02 12:52:05;;;;;;;0.10;0.10;;;15.40;66.40;;;;;;5036015;28;20033;-84
2024/04/02 12:54:31;;;;;;;0.10;0.10;;;15.70;65.20;;;;;;5019998;28;20550;-85